createdAt,value
2022-08-05T00:01:36.366Z,21.40
2022-08-05T00:04:17.851Z,21.50
2022-08-05T00:06:47.068Z,21.40
2022-08-05T00:09:16.019Z,21.40
2022-08-05T00:11:48.419Z,21.40
2022-08-05T00:14:17.883Z,21.40
2022-08-05T00:16:52.670Z,21.40
2022-08-05T00:19:22.595Z,21.30
2022-08-05T00:21:50.114Z,21.30
2022-08-05T00:24:24.151Z,21.30
2022-08-05T00:26:52.859Z,21.20
2022-08-05T00:29:25.697Z,21.30
2022-08-05T00:32:11.091Z,21.20
2022-08-05T00:34:53.628Z,21.20
2022-08-05T00:37:50.906Z,21.20
2022-08-05T00:40:17.834Z,21.20
2022-08-05T00:42:55.697Z,21.20
2022-08-05T00:45:28.108Z,21.20
2022-08-05T00:48:06.209Z,21.10
2022-08-05T00:50:34.011Z,21.10
2022-08-05T00:53:00.993Z,21.10
2022-08-05T00:55:42.237Z,21.10
2022-08-05T00:58:12.765Z,21.00
2022-08-05T01:00:40.919Z,21.10
2022-08-05T01:03:10.598Z,21.00
2022-08-05T01:05:49.271Z,21.00
2022-08-05T01:08:30.729Z,20.90
2022-08-05T01:11:33.691Z,21.00
2022-08-05T01:14:31.049Z,21.00
2022-08-05T01:17:08.768Z,21.00
2022-08-05T01:20:00.801Z,20.90
2022-08-05T01:22:46.869Z,20.90
2022-08-05T01:25:57.764Z,20.90
2022-08-05T01:28:39.454Z,20.90
2022-08-05T01:31:25.408Z,20.90
2022-08-05T01:34:07.021Z,20.90
2022-08-05T01:36:47.066Z,20.80
2022-08-05T01:39:36.150Z,20.90
2022-08-05T01:42:07.512Z,20.90
2022-08-05T01:44:38.860Z,20.90
2022-08-05T01:47:10.149Z,20.80
2022-08-05T01:50:00.487Z,20.80
2022-08-05T01:52:29.328Z,20.80
2022-08-05T01:55:01.446Z,20.80
2022-08-05T01:58:12.869Z,20.70
2022-08-05T02:00:30.102Z,20.80
2022-08-05T02:03:34.264Z,20.80
2022-08-05T02:06:33.425Z,20.80
2022-08-05T02:08:58.816Z,20.80
2022-08-05T02:11:33.983Z,20.70
2022-08-05T02:14:22.673Z,20.70
2022-08-05T02:16:55.195Z,20.70
2022-08-05T02:19:34.417Z,20.70
2022-08-05T02:22:25.857Z,20.70
2022-08-05T02:25:04.917Z,20.70
2022-08-05T02:27:59.399Z,20.60
2022-08-05T02:30:54.384Z,20.50
2022-08-05T02:33:24.595Z,20.60
2022-08-05T02:36:13.386Z,20.50
2022-08-05T02:38:53.601Z,20.50
2022-08-05T02:41:23.669Z,20.50
2022-08-05T02:44:02.651Z,20.50
2022-08-05T02:46:53.286Z,20.50
2022-08-05T02:49:36.983Z,20.50
2022-08-05T02:52:09.632Z,20.50
2022-08-05T02:54:42.430Z,20.50
2022-08-05T02:58:12.112Z,20.40
2022-08-05T03:00:09.756Z,20.40
2022-08-05T03:02:43.828Z,20.40
2022-08-05T03:05:13.772Z,20.40
2022-08-05T03:08:04.456Z,20.30
2022-08-05T03:10:30.723Z,20.30
2022-08-05T03:15:24.258Z,20.30
2022-08-05T03:17:55.556Z,20.20
2022-08-05T03:20:24.279Z,20.10
2022-08-05T03:22:52.957Z,20.20
2022-08-05T03:25:33.904Z,20.30
2022-08-05T03:28:11.225Z,20.30
2022-08-05T03:30:42.702Z,20.30
2022-08-05T03:33:10.477Z,20.20
2022-08-05T03:35:40.558Z,20.30
2022-08-05T03:38:11.694Z,20.30
2022-08-05T03:40:45.126Z,20.30
2022-08-05T03:43:59.273Z,20.20
2022-08-05T03:46:03.436Z,20.20
2022-08-05T03:48:30.760Z,20.30
2022-08-05T03:52:39.017Z,20.20
2022-08-05T03:55:34.206Z,20.20
2022-08-05T03:57:20.692Z,20.30
2022-08-05T03:59:56.980Z,20.30
2022-08-05T04:02:37.635Z,20.30
2022-08-05T04:05:09.870Z,20.30
2022-08-05T04:07:57.553Z,20.20
2022-08-05T04:10:30.907Z,20.10
2022-08-05T04:13:01.983Z,20.20
2022-08-05T04:15:33.172Z,20.10
2022-08-05T04:18:09.357Z,20.20
2022-08-05T04:20:37.429Z,20.10
2022-08-05T04:23:04.434Z,20.00
2022-08-05T04:25:57.976Z,20.00
2022-08-05T04:28:28.489Z,20.10
2022-08-05T04:30:58.932Z,19.90
2022-08-05T04:33:54.244Z,20.00
2022-08-05T04:36:45.437Z,20.00
2022-08-05T04:39:02.725Z,19.90
2022-08-05T04:41:37.258Z,19.90
2022-08-05T04:44:09.030Z,19.90
2022-08-05T04:46:37.903Z,19.90
2022-08-05T04:49:12.113Z,19.90
2022-08-05T04:51:43.579Z,19.80
2022-08-05T04:54:10.618Z,19.80
2022-08-05T04:56:39.393Z,19.80
2022-08-05T04:59:21.406Z,19.70
2022-08-05T05:02:07.625Z,19.70
2022-08-05T05:04:47.795Z,19.60
2022-08-05T05:07:17.573Z,19.70
2022-08-05T05:09:45.616Z,19.60
2022-08-05T05:12:12.479Z,19.60
2022-08-05T05:14:49.482Z,19.60
2022-08-05T05:17:22.697Z,19.60
2022-08-05T05:19:53.316Z,19.60
2022-08-05T05:22:22.727Z,19.60
2022-08-05T05:24:58.713Z,19.60
2022-08-05T05:27:41.415Z,19.70
2022-08-05T05:30:29.136Z,19.70
2022-08-05T05:33:03.909Z,19.80
2022-08-05T05:35:42.602Z,19.90
2022-08-05T05:38:13.805Z,19.90
2022-08-05T05:40:50.013Z,19.80
2022-08-05T05:43:54.182Z,19.80
2022-08-05T05:46:16.034Z,19.80
2022-08-05T05:48:46.055Z,19.90
2022-08-05T05:51:22.755Z,20.10
2022-08-05T05:53:57.942Z,20.30
2022-08-05T05:56:34.180Z,20.40
2022-08-05T05:59:07.525Z,20.80
2022-08-05T06:01:39.598Z,21.40
2022-08-05T06:04:13.308Z,21.70
2022-08-05T06:06:47.716Z,22.00
2022-08-05T06:09:26.710Z,22.10
2022-08-05T06:12:04.391Z,22.70
2022-08-05T06:14:31.902Z,22.50
2022-08-05T06:17:02.268Z,22.00
2022-08-05T06:19:57.210Z,21.60
2022-08-05T06:22:33.798Z,21.70
2022-08-05T06:25:25.180Z,22.40
2022-08-05T06:28:11.408Z,22.20
2022-08-05T06:30:35.742Z,21.80
2022-08-05T06:33:02.576Z,22.20
2022-08-05T06:36:08.187Z,22.20
2022-08-05T06:38:36.159Z,22.50
2022-08-05T06:41:07.914Z,22.80
2022-08-05T06:43:59.047Z,23.40
2022-08-05T06:46:23.531Z,23.50
2022-08-05T06:48:59.157Z,24.30
2022-08-05T06:51:29.875Z,24.80
2022-08-05T06:54:02.814Z,25.00
2022-08-05T06:56:34.454Z,24.70
2022-08-05T06:59:09.332Z,24.50
2022-08-05T07:01:37.233Z,24.30
2022-08-05T07:04:07.985Z,24.70
2022-08-05T07:06:35.083Z,24.80
2022-08-05T07:09:04.371Z,25.00
2022-08-05T07:11:37.215Z,25.20
2022-08-05T07:14:29.479Z,25.10
2022-08-05T07:18:00.930Z,25.10
2022-08-05T07:20:32.212Z,25.50
2022-08-05T07:22:38.760Z,26.10
2022-08-05T07:25:23.119Z,26.20
2022-08-05T07:27:59.563Z,26.60
2022-08-05T07:30:39.075Z,26.20
2022-08-05T07:33:16.587Z,25.30
2022-08-05T07:36:04.064Z,24.60
2022-08-05T07:38:35.378Z,24.20
2022-08-05T07:42:13.425Z,24.10
2022-08-05T07:44:14.140Z,24.10
2022-08-05T07:46:48.166Z,24.40
2022-08-05T07:49:15.607Z,24.90
2022-08-05T07:51:53.909Z,25.50
2022-08-05T07:54:31.227Z,25.50
2022-08-05T07:57:50.564Z,25.30
2022-08-05T07:59:49.910Z,25.00
2022-08-05T08:02:17.884Z,25.10
2022-08-05T08:04:49.672Z,25.00
2022-08-05T08:07:22.697Z,24.80
2022-08-05T08:09:55.001Z,25.10
2022-08-05T08:12:37.025Z,24.80
2022-08-05T08:15:14.324Z,25.50
2022-08-05T08:17:50.666Z,25.20
2022-08-05T08:20:45.445Z,24.90
2022-08-05T08:24:00.487Z,24.70
2022-08-05T08:26:00.673Z,25.70
2022-08-05T08:28:36.155Z,26.10
2022-08-05T08:31:07.363Z,25.80
2022-08-05T08:33:36.037Z,25.80
2022-08-05T08:36:38.144Z,26.00
2022-08-05T08:38:55.458Z,25.90
2022-08-05T08:41:26.245Z,25.50
2022-08-05T08:45:23.563Z,25.60
2022-08-05T08:47:04.073Z,25.30
2022-08-05T08:50:22.783Z,25.30
2022-08-05T08:52:51.344Z,24.30
2022-08-05T08:56:02.177Z,24.70
2022-08-05T08:58:08.558Z,24.80
2022-08-05T09:00:36.424Z,24.90
2022-08-05T09:03:06.726Z,25.00
2022-08-05T09:05:38.913Z,24.70
2022-08-05T09:08:26.573Z,24.50
2022-08-05T09:10:54.732Z,24.40
2022-08-05T09:13:23.518Z,24.80
2022-08-05T09:15:51.638Z,25.10
2022-08-05T09:18:18.813Z,24.90
2022-08-05T09:20:47.092Z,25.00
2022-08-05T09:23:21.728Z,24.90
2022-08-05T09:26:06.585Z,24.70
2022-08-05T09:28:38.684Z,24.80
2022-08-05T09:32:39.172Z,24.70
2022-08-05T09:34:10.992Z,24.70
2022-08-05T09:36:56.132Z,24.30
2022-08-05T09:39:39.453Z,24.00
2022-08-05T09:42:23.736Z,23.90
2022-08-05T09:44:57.474Z,24.10
2022-08-05T09:47:48.002Z,24.00
2022-08-05T09:50:37.723Z,24.20
2022-08-05T09:53:05.260Z,24.00
2022-08-05T09:55:57.384Z,23.80
2022-08-05T09:58:24.759Z,23.70
2022-08-05T10:01:13.568Z,23.20
2022-08-05T10:04:04.524Z,23.40
2022-08-05T10:06:40.606Z,23.30
2022-08-05T10:09:27.581Z,23.70
2022-08-05T10:12:30.736Z,23.60
2022-08-05T10:15:20.465Z,23.70
2022-08-05T10:18:17.506Z,23.70
2022-08-05T10:20:54.065Z,23.70
2022-08-05T10:23:55.591Z,23.80
2022-08-05T10:26:15.148Z,24.00
2022-08-05T10:28:46.660Z,23.80
2022-08-05T10:32:50.703Z,23.90
2022-08-05T10:34:06.932Z,24.20
2022-08-05T10:36:41.300Z,24.00
2022-08-05T10:39:25.117Z,24.50
2022-08-05T10:42:22.824Z,24.20
2022-08-05T10:45:20.857Z,23.80
2022-08-05T10:48:30.115Z,23.80
2022-08-05T10:51:21.861Z,23.70
2022-08-05T10:54:01.024Z,24.10
2022-08-05T10:56:36.384Z,24.10
2022-08-05T10:59:12.579Z,24.00
2022-08-05T11:02:14.404Z,23.80
2022-08-05T11:04:56.771Z,23.90
2022-08-05T11:07:33.140Z,24.10
2022-08-05T11:10:27.189Z,24.60
2022-08-05T11:12:55.603Z,24.80
2022-08-05T11:16:00.044Z,24.40
2022-08-05T11:18:34.336Z,24.80
2022-08-05T11:21:02.907Z,24.40
2022-08-05T11:24:04.102Z,24.30
2022-08-05T11:26:43.215Z,24.40
2022-08-05T11:29:40.910Z,24.30
2022-08-05T11:32:29.110Z,24.50
2022-08-05T11:34:57.868Z,24.40
2022-08-05T11:38:26.134Z,24.40
2022-08-05T11:41:34.445Z,24.70
2022-08-05T11:44:01.013Z,24.80
2022-08-05T11:47:09.251Z,24.40
2022-08-05T11:49:34.298Z,24.10
2022-08-05T11:52:11.281Z,24.20
2022-08-05T11:54:40.385Z,24.00
2022-08-05T11:57:25.659Z,24.20
2022-08-05T11:59:54.851Z,24.20
2022-08-05T12:02:33.043Z,24.40
2022-08-05T12:05:07.637Z,24.20
2022-08-05T12:08:03.361Z,24.10
2022-08-05T12:10:43.053Z,23.90
2022-08-05T12:13:27.946Z,24.00
2022-08-05T12:16:14.407Z,24.10
2022-08-05T12:18:42.569Z,23.80
2022-08-05T12:21:18.972Z,23.70
2022-08-05T12:24:07.203Z,23.20
2022-08-05T12:26:38.586Z,23.60
2022-08-05T12:29:16.204Z,23.90
2022-08-05T12:31:54.537Z,24.30
2022-08-05T12:34:28.326Z,24.30
2022-08-05T12:37:01.470Z,24.30
2022-08-05T12:39:37.440Z,24.60
2022-08-05T12:42:14.867Z,24.50
2022-08-05T12:44:44.591Z,24.40
2022-08-05T12:47:17.245Z,24.30
2022-08-05T12:50:03.389Z,24.60
2022-08-05T12:52:42.528Z,24.70
2022-08-05T12:55:28.977Z,24.80
2022-08-05T12:58:48.313Z,24.50
2022-08-05T13:02:04.988Z,24.70
2022-08-05T13:03:41.941Z,24.50
2022-08-05T13:06:19.842Z,24.90
2022-08-05T13:08:50.924Z,24.70
2022-08-05T13:12:01.631Z,24.50
2022-08-05T13:14:19.806Z,24.20
2022-08-05T13:16:56.415Z,23.80
2022-08-05T13:19:51.760Z,24.00
2022-08-05T13:22:29.188Z,24.60
2022-08-05T13:25:05.880Z,24.70
2022-08-05T13:27:50.269Z,24.30
2022-08-05T13:30:34.571Z,24.30
2022-08-05T13:33:03.758Z,24.40
2022-08-05T13:35:47.395Z,24.60
2022-08-05T13:38:30.649Z,24.60
2022-08-05T13:41:06.508Z,24.90
2022-08-05T13:43:45.035Z,25.30
2022-08-05T13:46:43.955Z,25.40
2022-08-05T13:49:13.002Z,24.60
2022-08-05T13:51:54.089Z,24.90
2022-08-05T13:54:28.664Z,24.90
2022-08-05T13:57:11.501Z,24.20
2022-08-05T13:59:59.264Z,23.90
2022-08-05T14:02:31.910Z,24.00
2022-08-05T14:05:12.095Z,24.10
2022-08-05T14:08:00.844Z,23.90
2022-08-05T14:10:37.352Z,23.50
2022-08-05T14:13:12.082Z,23.50
2022-08-05T14:16:05.347Z,23.30
2022-08-05T14:18:34.545Z,23.30
2022-08-05T14:22:07.913Z,23.20
2022-08-05T14:23:56.493Z,23.40
2022-08-05T14:26:35.832Z,23.30
2022-08-05T14:29:16.489Z,23.50
2022-08-05T14:32:03.805Z,23.60
2022-08-05T14:34:42.450Z,23.30
2022-08-05T14:37:13.319Z,23.40
2022-08-05T14:39:49.343Z,23.40
2022-08-05T14:42:31.204Z,23.70
2022-08-05T14:45:01.347Z,23.80
2022-08-05T14:48:02.971Z,23.60
2022-08-05T14:50:44.020Z,23.40
2022-08-05T14:53:15.533Z,23.30
2022-08-05T14:55:52.070Z,23.20
2022-08-05T14:58:22.878Z,23.20
2022-08-05T15:00:58.459Z,23.10
2022-08-05T15:03:40.063Z,22.90
2022-08-05T15:06:14.867Z,22.90
2022-08-05T15:08:58.526Z,22.90
2022-08-05T15:11:51.770Z,22.90
2022-08-05T15:14:34.921Z,23.00
2022-08-05T15:17:46.405Z,22.90
2022-08-05T15:20:18.726Z,22.80
2022-08-05T15:22:55.315Z,22.50
2022-08-05T15:25:53.399Z,22.30
2022-08-05T15:28:42.974Z,22.40
2022-08-05T15:31:20.614Z,22.30
2022-08-05T15:34:18.776Z,22.50
2022-08-05T15:37:03.545Z,22.60
2022-08-05T15:41:00.280Z,22.70
2022-08-05T15:42:55.230Z,22.30
2022-08-05T15:45:38.791Z,22.40
2022-08-05T15:48:29.883Z,22.30
2022-08-05T15:54:03.224Z,22.50
2022-08-05T15:56:42.241Z,22.40
2022-08-05T15:59:21.751Z,22.30
2022-08-05T16:01:53.706Z,22.20
2022-08-05T16:04:37.996Z,22.20
2022-08-05T16:07:25.638Z,22.20
2022-08-05T16:10:05.383Z,22.30
2022-08-05T16:12:49.628Z,22.20
2022-08-05T16:15:32.387Z,22.20
2022-08-05T16:18:15.645Z,22.20
2022-08-05T16:20:59.486Z,22.20
2022-08-05T16:23:54.307Z,22.10
2022-08-05T16:26:28.420Z,22.20
2022-08-05T16:28:59.150Z,22.20
2022-08-05T16:31:57.307Z,22.00
2022-08-05T16:34:24.481Z,22.00
2022-08-05T16:37:01.743Z,21.90
2022-08-05T16:40:05.880Z,22.00
2022-08-05T16:42:42.037Z,22.00
2022-08-05T16:46:07.235Z,22.00
2022-08-05T16:48:03.014Z,21.90
2022-08-05T16:50:31.012Z,21.80
2022-08-05T16:53:22.547Z,21.90
2022-08-05T16:56:03.307Z,21.80
2022-08-05T16:58:33.736Z,21.70
2022-08-05T17:01:10.382Z,21.50
2022-08-05T17:03:40.610Z,21.30
2022-08-05T17:06:12.604Z,21.40
2022-08-05T17:08:52.741Z,21.40
2022-08-05T17:11:35.907Z,21.50
2022-08-05T17:14:22.280Z,21.50
2022-08-05T17:17:14.575Z,21.40
2022-08-05T17:19:47.091Z,21.40
2022-08-05T17:22:25.605Z,21.30
2022-08-05T17:24:57.081Z,21.30
2022-08-05T17:27:34.324Z,21.20
2022-08-05T17:30:11.811Z,21.10
2022-08-05T17:32:43.802Z,21.00
2022-08-05T17:35:26.820Z,20.90
2022-08-05T17:38:19.063Z,20.90
2022-08-05T17:40:50.210Z,20.80
2022-08-05T17:43:47.198Z,20.90
2022-08-05T17:46:25.462Z,20.80
2022-08-05T17:48:53.126Z,20.70
2022-08-05T17:51:24.256Z,20.70
2022-08-05T17:53:56.631Z,20.70
2022-08-05T17:56:29.825Z,20.60
2022-08-05T17:59:00.466Z,20.60
2022-08-05T18:01:47.204Z,20.60
2022-08-05T18:04:21.232Z,20.50
2022-08-05T18:06:53.749Z,20.50
2022-08-05T18:10:00.313Z,20.40
2022-08-05T18:12:34.005Z,20.30
2022-08-05T18:15:10.200Z,20.20
2022-08-05T18:17:59.195Z,20.40
2022-08-05T18:20:32.568Z,20.90
2022-08-05T18:23:12.166Z,21.20
2022-08-05T18:25:45.485Z,21.50
2022-08-05T18:28:17.671Z,21.30
2022-08-05T18:30:52.705Z,21.10
2022-08-05T18:33:26.282Z,21.10
2022-08-05T18:36:11.821Z,21.20
2022-08-05T18:38:55.535Z,20.80
2022-08-05T18:41:55.078Z,20.70
2022-08-05T18:44:35.353Z,20.70
2022-08-05T18:47:26.701Z,20.50
2022-08-05T18:50:42.321Z,20.70
2022-08-05T18:53:22.832Z,20.60
2022-08-05T18:56:04.206Z,20.50
2022-08-05T18:58:44.300Z,20.70
2022-08-05T19:01:19.498Z,20.50
2022-08-05T19:04:12.311Z,20.30
2022-08-05T19:06:45.155Z,20.50
2022-08-05T19:09:16.612Z,20.30
2022-08-05T19:11:59.828Z,20.10
2022-08-05T19:14:53.251Z,20.20
2022-08-05T19:17:33.733Z,20.10
2022-08-05T19:20:31.885Z,19.90
2022-08-05T19:23:22.710Z,19.80
2022-08-05T19:26:12.376Z,19.90
2022-08-05T19:28:46.160Z,19.90
2022-08-05T19:31:22.850Z,19.50
2022-08-05T19:33:58.910Z,19.20
2022-08-05T19:36:43.324Z,19.10
2022-08-05T19:39:20.781Z,19.00
2022-08-05T19:42:13.569Z,18.90
2022-08-05T19:44:47.514Z,18.80
2022-08-05T19:47:23.010Z,18.70
2022-08-05T19:50:04.443Z,18.70
2022-08-05T19:52:47.835Z,18.70
2022-08-05T19:56:15.291Z,18.50
2022-08-05T19:58:28.609Z,18.40
2022-08-05T20:01:24.749Z,18.30
2022-08-05T20:04:09.172Z,18.30
2022-08-05T20:06:45.847Z,18.20
2022-08-05T20:09:20.734Z,18.20
2022-08-05T20:11:55.333Z,18.10
2022-08-05T20:14:30.898Z,18.10
2022-08-05T20:17:08.961Z,18.00
2022-08-05T20:19:44.962Z,17.90
2022-08-05T20:22:15.704Z,17.90
2022-08-05T20:24:44.264Z,17.80
2022-08-05T20:27:17.562Z,17.80
2022-08-05T20:29:58.427Z,17.80
2022-08-05T20:32:31.723Z,17.70
2022-08-05T20:35:00.841Z,17.70
2022-08-05T20:38:05.659Z,17.70
2022-08-05T20:40:38.334Z,17.70
2022-08-05T20:43:15.158Z,17.60
2022-08-05T20:45:55.968Z,17.60
2022-08-05T20:48:30.512Z,17.50
2022-08-05T20:51:08.342Z,17.50
2022-08-05T20:53:40.799Z,17.40
2022-08-05T20:56:16.945Z,17.40
2022-08-05T20:59:00.060Z,17.30
2022-08-05T21:01:58.152Z,17.30
2022-08-05T21:04:33.898Z,17.30
2022-08-05T21:07:14.514Z,17.20
2022-08-05T21:09:53.349Z,17.10
2022-08-05T21:12:26.838Z,17.10
2022-08-05T21:15:03.767Z,17.10
2022-08-05T21:17:36.797Z,17.00
2022-08-05T21:20:13.988Z,17.00
2022-08-05T21:23:12.477Z,16.90
2022-08-05T21:25:47.651Z,16.90
2022-08-05T21:28:30.850Z,16.80
2022-08-05T21:30:59.256Z,16.70
2022-08-05T21:33:39.993Z,16.70
2022-08-05T21:36:19.159Z,16.70
2022-08-05T21:38:58.501Z,16.70
2022-08-05T21:41:33.791Z,16.60
2022-08-05T21:44:05.070Z,16.40
2022-08-05T21:46:44.702Z,16.30
2022-08-05T21:50:00.386Z,16.10
2022-08-05T21:52:22.826Z,16.00
2022-08-05T21:55:06.348Z,15.90
2022-08-05T21:57:42.968Z,15.80
2022-08-05T22:00:13.189Z,15.80
2022-08-05T22:03:05.830Z,15.60
2022-08-05T22:05:48.507Z,15.60
2022-08-05T22:08:26.363Z,15.60
2022-08-05T22:11:02.521Z,15.60
2022-08-05T22:14:33.608Z,15.50
2022-08-05T22:16:41.623Z,15.50
2022-08-05T22:20:03.576Z,15.50
2022-08-05T22:22:28.174Z,15.50
2022-08-05T22:25:27.369Z,15.40
2022-08-05T22:28:11.308Z,15.30
2022-08-05T22:31:05.050Z,15.20
2022-08-05T22:33:56.669Z,15.20
2022-08-05T22:36:24.185Z,15.20
2022-08-05T22:38:54.519Z,15.20
2022-08-05T22:42:10.231Z,15.20
2022-08-05T22:44:27.196Z,15.20
2022-08-05T22:47:29.406Z,15.10
2022-08-05T22:50:21.821Z,15.00
2022-08-05T22:52:55.115Z,14.90
2022-08-05T22:55:27.034Z,14.80
2022-08-05T22:58:05.041Z,14.80
2022-08-05T23:00:33.063Z,14.70
2022-08-05T23:03:13.379Z,14.70
2022-08-05T23:05:51.209Z,14.60
2022-08-05T23:08:22.318Z,14.60
2022-08-05T23:10:53.259Z,14.60
2022-08-05T23:13:26.350Z,14.50
2022-08-05T23:15:59.693Z,14.40
2022-08-05T23:18:27.635Z,14.50
2022-08-05T23:21:00.089Z,14.50
2022-08-05T23:23:29.966Z,14.40
2022-08-05T23:26:03.367Z,14.20
2022-08-05T23:28:36.435Z,14.20
2022-08-05T23:31:17.251Z,14.20
2022-08-05T23:34:03.063Z,14.10
2022-08-05T23:36:39.744Z,13.90
2022-08-05T23:39:31.794Z,14.00
2022-08-05T23:42:03.969Z,14.00
2022-08-05T23:44:42.604Z,14.10
2022-08-05T23:47:16.475Z,14.10
2022-08-05T23:49:55.591Z,14.10
2022-08-05T23:52:35.869Z,14.20
2022-08-05T23:55:10.290Z,14.10
2022-08-05T23:57:48.854Z,14.00
